Time;durP1;ratioP1;P1;durP2;ratioP2;P2;SDS_P1;SDS_P2;PMS_P1;PMS_P2;Temp;Humidity;BMP_temperature;BMP_pressure;BME280_temperature;BME280_humidity;BME280_pressure;Samples;Min_cycle;Max_cycle;Signal;HPM_P1;HPM_P2
2023/08/11 00:02:23;;;;;;;6.20;4.25;;;22.90;70.40;;;;;;4957616;29;20126;-69
2023/08/11 00:04:52;;;;;;;5.65;4.63;;;22.90;70.40;;;;;;4956989;28;20031;-69
2023/08/11 00:07:18;;;;;;;5.68;4.30;;;22.90;70.50;;;;;;4957076;28;20090;-69
2023/08/11 00:09:44;;;;;;;6.88;4.65;;;22.80;70.50;;;;;;4956900;29;20027;-69
2023/08/11 00:12:10;;;;;;;6.80;4.13;;;22.80;70.60;;;;;;4957264;28;20043;-69
2023/08/11 00:14:36;;;;;;;7.43;5.10;;;22.80;70.60;;;;;;4957598;28;20538;-69
2023/08/11 00:17:03;;;;;;;6.60;4.60;;;22.80;70.60;;;;;;4957011;28;20335;-69
2023/08/11 00:19:29;;;;;;;5.63;4.18;;;22.80;70.60;;;;;;4971943;28;20074;-69
2023/08/11 00:21:56;;;;;;;7.13;4.13;;;22.80;70.80;;;;;;4957472;28;20134;-69
2023/08/11 00:24:23;;;;;;;6.03;4.40;;;22.80;70.80;;;;;;4957166;28;20063;-69
2023/08/11 00:26:49;;;;;;;5.28;4.05;;;22.80;70.80;;;;;;4956951;28;20102;-69
2023/08/11 00:29:17;;;;;;;6.53;4.50;;;22.70;70.80;;;;;;4957332;28;20426;-69
2023/08/11 00:31:45;;;;;;;6.03;4.82;;;22.80;70.80;;;;;;4956898;28;20039;-68
2023/08/11 00:34:11;;;;;;;7.95;4.78;;;22.70;70.70;;;;;;4957086;28;20054;-69
2023/08/11 00:36:40;;;;;;;5.90;4.40;;;22.70;70.90;;;;;;4956828;28;20090;-68
2023/08/11 00:39:07;;;;;;;8.27;5.20;;;22.70;70.90;;;;;;4956612;28;20102;-69
2023/08/11 00:41:33;;;;;;;6.20;4.63;;;22.70;70.90;;;;;;4956799;28;20391;-69
2023/08/11 00:43:59;;;;;;;6.03;4.38;;;22.60;71.00;;;;;;4971834;28;20027;-68
2023/08/11 00:46:25;;;;;;;9.88;5.95;;;22.60;71.00;;;;;;4956962;29;20027;-69
2023/08/11 00:48:52;;;;;;;9.70;6.65;;;22.60;70.90;;;;;;4956638;29;20098;-69
2023/08/11 00:51:23;;;;;;;7.30;6.20;;;22.60;71.40;;;;;;4956670;28;20065;-69
2023/08/11 00:53:51;;;;;;;8.63;6.18;;;22.50;71.40;;;;;;4957186;28;20027;-69
2023/08/11 00:56:24;;;;;;;8.00;6.03;;;22.50;71.60;;;;;;4956895;28;20035;-69
2023/08/11 00:58:53;;;;;;;7.95;6.13;;;22.40;71.50;;;;;;4956989;28;20031;-68
2023/08/11 01:01:18;;;;;;;8.55;7.22;;;22.40;71.60;;;;;;4956562;28;20043;-68
2023/08/11 01:03:47;;;;;;;9.45;6.95;;;22.40;71.90;;;;;;4956586;28;20023;-69
2023/08/11 01:06:23;;;;;;;8.35;6.90;;;22.40;71.90;;;;;;4957347;28;20039;-68
2023/08/11 01:09:07;;;;;;;11.30;7.18;;;22.40;72.00;;;;;;4960261;28;20082;-68
2023/08/11 01:11:47;;;;;;;9.00;6.60;;;22.40;72.10;;;;;;4960298;28;20069;-68
2023/08/11 01:14:25;;;;;;;7.03;5.75;;;22.40;72.00;;;;;;4959787;28;20047;-69
2023/08/11 01:16:52;;;;;;;8.57;6.63;;;22.40;72.00;;;;;;4960231;28;20035;-68
2023/08/11 01:19:28;;;;;;;9.32;6.95;;;22.40;72.00;;;;;;4959733;28;20023;-69
2023/08/11 01:21:59;;;;;;;10.57;7.18;;;22.30;72.10;;;;;;4959802;28;20028;-69
2023/08/11 01:24:26;;;;;;;9.50;7.30;;;22.30;72.30;;;;;;4960074;28;20110;-69
2023/08/11 01:26:53;;;;;;;9.38;7.30;;;22.30;72.10;;;;;;4960026;28;20023;-68
2023/08/11 01:29:19;;;;;;;9.02;6.80;;;22.30;72.60;;;;;;4959047;29;20071;-68
2023/08/11 01:31:45;;;;;;;9.52;6.25;;;22.20;72.60;;;;;;4959658;28;20050;-69
2023/08/11 01:34:13;;;;;;;6.88;5.55;;;22.20;72.40;;;;;;4959920;28;20026;-69
2023/08/11 01:36:42;;;;;;;7.68;6.45;;;22.20;72.40;;;;;;4960103;29;20031;-69
2023/08/11 01:39:09;;;;;;;8.02;5.55;;;22.20;72.50;;;;;;4959947;28;20058;-69
2023/08/11 01:41:41;;;;;;;9.02;5.78;;;22.20;72.60;;;;;;4959947;28;20036;-69
2023/08/11 01:44:08;;;;;;;7.03;5.68;;;22.20;72.50;;;;;;4959496;28;20105;-69
2023/08/11 01:46:35;;;;;;;7.68;4.85;;;22.20;72.60;;;;;;4959390;28;20027;-68
2023/08/11 01:49:01;;;;;;;8.63;6.63;;;22.20;72.70;;;;;;4959594;28;20035;-69
2023/08/11 01:51:28;;;;;;;8.43;5.95;;;22.20;72.90;;;;;;4959885;28;20031;-69
2023/08/11 01:54:04;;;;;;;8.45;5.35;;;22.20;72.90;;;;;;4958935;29;20034;-69
2023/08/11 01:56:32;;;;;;;8.55;6.15;;;22.20;72.90;;;;;;4959163;28;20031;-69
2023/08/11 01:59:15;;;;;;;7.57;5.38;;;22.20;72.90;;;;;;4959561;28;20051;-68
2023/08/11 02:01:49;;;;;;;8.45;5.00;;;22.10;72.90;;;;;;4959059;28;20027;-68
2023/08/11 02:04:19;;;;;;;7.53;5.90;;;22.10;72.90;;;;;;4959586;28;20023;-69
2023/08/11 02:06:47;;;;;;;9.05;6.38;;;22.10;72.70;;;;;;4959087;28;20027;-68
2023/08/11 02:09:13;;;;;;;8.32;5.90;;;22.10;73.10;;;;;;4958959;28;20023;-69
2023/08/11 02:11:39;;;;;;;9.35;6.65;;;22.10;72.80;;;;;;4958991;28;20034;-69
2023/08/11 02:14:08;;;;;;;10.07;7.00;;;22.00;73.00;;;;;;4958784;28;20070;-68
2023/08/11 02:16:37;;;;;;;9.02;6.30;;;21.90;73.60;;;;;;4958603;28;20465;-69
2023/08/11 02:19:04;;;;;;;7.85;6.13;;;21.90;73.40;;;;;;4958587;28;20059;-68
2023/08/11 02:21:31;;;;;;;10.43;6.57;;;21.90;73.20;;;;;;4958725;28;20035;-69
2023/08/11 02:23:57;;;;;;;8.13;6.07;;;21.90;73.20;;;;;;4958766;28;20070;-69
2023/08/11 02:26:25;;;;;;;8.65;6.55;;;21.90;73.30;;;;;;4959008;28;20027;-68
2023/08/11 02:28:52;;;;;;;9.13;6.30;;;21.90;73.30;;;;;;4958524;28;20026;-69
2023/08/11 02:31:20;;;;;;;11.55;6.60;;;21.80;73.50;;;;;;4958594;28;20481;-68
2023/08/11 02:33:46;;;;;;;7.72;6.20;;;21.80;73.40;;;;;;4958523;28;20046;-68
2023/08/11 02:36:14;;;;;;;9.77;6.07;;;21.70;73.70;;;;;;4958996;28;20051;-68
2023/08/11 02:38:40;;;;;;;13.95;6.50;;;21.60;73.50;;;;;;4958638;28;20027;-69
2023/08/11 02:41:06;;;;;;;11.70;6.55;;;21.60;74.00;;;;;;4958401;28;20127;-69
2023/08/11 02:43:33;;;;;;;10.77;6.97;;;21.50;73.70;;;;;;4958378;28;20031;-69
2023/08/11 02:45:59;;;;;;;9.65;6.78;;;21.40;73.80;;;;;;4958307;28;20050;-69
2023/08/11 02:48:25;;;;;;;10.20;6.88;;;21.40;74.00;;;;;;4959317;28;20027;-69
2023/08/11 02:50:51;;;;;;;10.05;7.43;;;21.40;73.90;;;;;;4958437;28;20442;-69
2023/08/11 02:53:17;;;;;;;9.55;6.78;;;21.30;74.20;;;;;;4958737;28;20058;-68
2023/08/11 02:55:45;;;;;;;11.38;7.55;;;21.30;74.20;;;;;;4958171;28;20441;-69
2023/08/11 02:58:12;;;;;;;9.30;7.22;;;21.20;74.50;;;;;;4958048;28;20035;-69
2023/08/11 03:00:45;;;;;;;9.43;6.90;;;21.10;74.50;;;;;;4957914;29;20505;-69
2023/08/11 03:03:12;;;;;;;8.80;6.75;;;21.00;74.50;;;;;;4957920;28;20033;-69
2023/08/11 03:05:39;;;;;;;9.80;7.28;;;21.00;74.60;;;;;;4957914;28;20447;-69
2023/08/11 03:08:07;;;;;;;7.97;6.50;;;20.90;74.50;;;;;;4957851;28;20365;-68
2023/08/11 03:10:33;;;;;;;8.70;5.80;;;20.90;74.40;;;;;;4972957;28;20397;-68
2023/08/11 03:12:59;;;;;;;9.02;6.53;;;20.90;74.30;;;;;;4957582;28;20366;-71
2023/08/11 03:15:25;;;;;;;8.23;5.60;;;20.80;74.30;;;;;;4957823;28;20045;-68
2023/08/11 03:17:52;;;;;;;7.68;5.60;;;20.80;74.30;;;;;;4957747;28;20027;-68
2023/08/11 03:20:18;;;;;;;8.13;6.10;;;20.70;74.30;;;;;;4957683;28;20026;-69
2023/08/11 03:22:45;;;;;;;9.15;6.53;;;20.70;74.30;;;;;;4957928;28;20038;-69
2023/08/11 03:25:12;;;;;;;8.73;5.93;;;20.70;74.30;;;;;;4958171;28;20409;-69
2023/08/11 03:27:42;;;;;;;7.10;5.60;;;20.70;74.30;;;;;;4957575;28;20070;-68
2023/08/11 03:30:10;;;;;;;8.55;5.90;;;20.70;74.30;;;;;;4957135;28;20162;-68
2023/08/11 03:32:39;;;;;;;9.48;5.30;;;20.60;74.30;;;;;;4958004;28;20431;-69
2023/08/11 03:35:08;;;;;;;8.10;6.35;;;20.60;74.40;;;;;;4957501;28;20151;-69
2023/08/11 03:37:35;;;;;;;9.88;6.07;;;20.60;74.40;;;;;;4957454;28;20086;-69
2023/08/11 03:40:04;;;;;;;10.02;6.70;;;20.60;74.40;;;;;;4956283;29;20031;-69
2023/08/11 03:42:30;;;;;;;8.40;6.40;;;20.50;74.40;;;;;;4957334;28;20038;-69
2023/08/11 03:45:00;;;;;;;8.13;5.70;;;20.50;74.40;;;;;;4957880;28;20023;-68
2023/08/11 03:47:26;;;;;;;7.30;5.53;;;20.40;74.40;;;;;;4957865;28;20407;-68
2023/08/11 03:49:52;;;;;;;7.50;5.47;;;20.40;74.60;;;;;;4957458;29;20031;-69
2023/08/11 03:52:18;;;;;;;8.07;5.45;;;20.40;74.50;;;;;;4957773;28;20350;-69
2023/08/11 03:54:44;;;;;;;7.07;5.93;;;20.40;74.50;;;;;;4957519;28;20047;-69
2023/08/11 03:57:11;;;;;;;6.22;4.93;;;20.40;74.50;;;;;;4957456;28;20039;-69
2023/08/11 03:59:37;;;;;;;12.00;6.63;;;20.40;74.50;;;;;;4957005;29;20098;-68
2023/08/11 04:02:03;;;;;;;7.78;6.13;;;20.40;74.70;;;;;;4957654;28;20102;-69
2023/08/11 04:04:29;;;;;;;8.73;7.00;;;20.30;74.80;;;;;;4957360;28;20051;-69
2023/08/11 04:06:55;;;;;;;9.23;6.35;;;20.30;74.90;;;;;;4957397;28;20106;-69
2023/08/11 04:09:21;;;;;;;8.73;6.38;;;20.20;74.90;;;;;;4957511;29;20042;-68
2023/08/11 04:11:48;;;;;;;8.15;6.00;;;20.20;74.70;;;;;;4957522;29;20027;-69
2023/08/11 04:14:16;;;;;;;9.65;6.72;;;20.20;74.70;;;;;;4956832;28;20195;-68
2023/08/11 04:16:47;;;;;;;11.48;6.60;;;20.20;74.50;;;;;;4957468;28;20505;-68
2023/08/11 04:19:13;;;;;;;8.02;5.82;;;20.20;74.70;;;;;;4956788;28;20054;-68
2023/08/11 04:21:40;;;;;;;8.05;5.22;;;20.10;74.90;;;;;;4957216;28;20030;-69
2023/08/11 04:24:08;;;;;;;6.72;5.50;;;20.10;74.60;;;;;;4957246;28;20043;-67
2023/08/11 04:26:34;;;;;;;9.77;5.72;;;20.20;74.60;;;;;;4956935;28;20036;-69
2023/08/11 04:29:04;;;;;;;9.38;5.60;;;20.20;74.50;;;;;;4956824;29;20032;-68
2023/08/11 04:31:43;;;;;;;6.03;4.55;;;20.20;74.40;;;;;;4956846;28;20039;-69
2023/08/11 04:34:10;;;;;;;6.85;4.70;;;20.20;74.40;;;;;;4957173;29;20042;-69
2023/08/11 04:36:55;;;;;;;5.93;4.28;;;20.30;74.30;;;;;;4956713;29;20031;-69
2023/08/11 04:39:21;;;;;;;7.00;4.22;;;20.30;74.30;;;;;;4956658;28;20039;-68
2023/08/11 04:41:49;;;;;;;7.35;4.35;;;20.40;74.30;;;;;;4960136;28;20055;-68
2023/08/11 04:44:17;;;;;;;5.38;4.20;;;20.40;74.20;;;;;;4961025;28;20027;-68
2023/08/11 04:46:43;;;;;;;4.38;3.90;;;20.40;74.10;;;;;;4960746;28;20064;-68
2023/08/11 04:49:09;;;;;;;5.80;4.60;;;20.50;74.00;;;;;;4960647;28;20094;-68
2023/08/11 04:51:35;;;;;;;7.93;4.72;;;20.60;73.90;;;;;;4960383;28;20458;-68
2023/08/11 04:54:02;;;;;;;7.03;4.72;;;20.60;73.70;;;;;;4960850;29;20027;-68
2023/08/11 04:56:28;;;;;;;8.32;4.55;;;20.70;73.60;;;;;;4960263;28;20473;-68
2023/08/11 04:58:55;;;;;;;7.85;5.15;;;20.80;73.70;;;;;;4960414;28;20027;-68
2023/08/11 05:01:22;;;;;;;5.88;4.30;;;21.50;73.30;;;;;;4960247;28;20023;-68
2023/08/11 05:03:52;;;;;;;5.95;4.05;;;22.80;71.30;;;;;;4960246;28;20453;-68
2023/08/11 05:06:19;;;;;;;5.13;4.00;;;24.10;68.50;;;;;;4960433;28;20030;-68
2023/08/11 05:08:47;;;;;;;6.88;3.95;;;25.50;65.30;;;;;;4960089;29;20098;-68
2023/08/11 05:11:13;;;;;;;5.55;4.00;;;26.80;62.40;;;;;;4960806;28;20083;-69
2023/08/11 05:13:39;;;;;;;5.68;3.97;;;28.00;59.70;;;;;;4959802;28;20059;-68
2023/08/11 05:16:05;;;;;;;6.05;4.03;;;29.10;57.20;;;;;;4960195;28;20079;-68
2023/08/11 05:18:31;;;;;;;7.35;4.38;;;30.10;54.70;;;;;;4960126;28;20342;-68
2023/08/11 05:20:57;;;;;;;5.03;4.13;;;31.00;52.90;;;;;;4960056;28;20106;-69
2023/08/11 05:23:23;;;;;;;6.20;3.67;;;32.00;51.10;;;;;;4960100;28;20028;-69
2023/08/11 05:25:49;;;;;;;5.38;3.63;;;32.90;49.40;;;;;;4959757;29;20505;-69
2023/08/11 05:28:15;;;;;;;5.80;3.80;;;33.90;47.80;;;;;;4959727;29;20089;-69
2023/08/11 05:30:41;;;;;;;4.53;3.38;;;34.70;46.30;;;;;;4959629;28;20023;-69
2023/08/11 05:33:08;;;;;;;6.43;3.80;;;35.40;45.00;;;;;;4959603;28;20035;-69
2023/08/11 05:35:34;;;;;;;5.13;3.60;;;36.10;43.50;;;;;;4959613;28;20016;-69
2023/08/11 05:38:01;;;;;;;5.28;3.50;;;36.70;42.30;;;;;;4959415;29;20126;-68
2023/08/11 05:40:28;;;;;;;4.78;3.42;;;37.30;41.30;;;;;;4959375;28;20089;-68
2023/08/11 05:42:53;;;;;;;4.18;3.33;;;37.90;40.40;;;;;;4959488;28;20114;-69
2023/08/11 05:45:20;;;;;;;4.18;3.38;;;38.50;39.30;;;;;;4959438;28;20115;-68
2023/08/11 05:47:46;;;;;;;4.45;3.05;;;39.20;38.50;;;;;;4959664;28;20070;-68
2023/08/11 05:50:12;;;;;;;5.50;3.13;;;39.90;37.80;;;;;;4959426;28;20035;-69
2023/08/11 05:52:38;;;;;;;4.38;3.10;;;40.40;36.80;;;;;;4958740;28;20031;-69
2023/08/11 05:55:05;;;;;;;4.70;2.75;;;41.00;36.00;;;;;;4959031;28;20045;-69
2023/08/11 05:57:31;;;;;;;5.07;3.00;;;41.50;35.20;;;;;;4958915;28;20154;-69
2023/08/11 05:59:57;;;;;;;3.78;2.80;;;42.10;34.50;;;;;;4958786;28;20027;-69
2023/08/11 06:02:23;;;;;;;3.15;2.83;;;42.60;33.90;;;;;;4958929;28;20434;-70
2023/08/11 06:04:51;;;;;;;4.80;3.13;;;43.20;33.10;;;;;;4959309;29;20038;-70
2023/08/11 06:07:17;;;;;;;3.63;2.40;;;43.60;32.40;;;;;;4958793;29;20033;-69
2023/08/11 06:09:44;;;;;;;4.50;2.70;;;44.20;31.70;;;;;;4958934;28;20074;-70
2023/08/11 06:12:10;;;;;;;5.20;2.92;;;44.60;31.00;;;;;;4958680;28;20046;-69
2023/08/11 06:14:36;;;;;;;3.70;2.42;;;44.90;30.00;;;;;;4958963;28;20082;-69
2023/08/11 06:17:03;;;;;;;6.15;2.67;;;45.10;28.80;;;;;;4959051;29;20027;-67
2023/08/11 06:19:29;;;;;;;3.03;2.70;;;45.20;28.00;;;;;;4958379;28;20442;-69
2023/08/11 06:21:55;;;;;;;4.47;2.70;;;45.20;27.10;;;;;;4958541;28;20110;-68
2023/08/11 06:24:22;;;;;;;4.53;2.22;;;45.10;26.70;;;;;;4959006;28;20035;-69
2023/08/11 06:26:49;;;;;;;3.63;2.50;;;45.10;26.90;;;;;;4958954;28;20119;-68
2023/08/11 06:29:15;;;;;;;4.47;2.65;;;45.40;26.60;;;;;;4958743;28;20457;-69
2023/08/11 06:31:42;;;;;;;2.50;2.20;;;45.50;26.00;;;;;;4958787;29;20035;-69
2023/08/11 06:34:09;;;;;;;4.30;2.30;;;45.60;26.20;;;;;;4959012;28;20039;-69
2023/08/11 06:36:35;;;;;;;3.08;2.15;;;45.90;26.00;;;;;;4958220;28;20055;-69
2023/08/11 06:39:01;;;;;;;2.75;2.42;;;46.10;25.90;;;;;;4957999;28;20028;-69
2023/08/11 06:41:28;;;;;;;4.93;2.40;;;46.30;25.30;;;;;;4958431;28;20082;-69
2023/08/11 06:43:54;;;;;;;2.50;2.28;;;45.70;24.90;;;;;;4958373;28;20095;-68
2023/08/11 06:46:20;;;;;;;3.00;2.47;;;45.40;25.80;;;;;;4958004;28;20464;-69
2023/08/11 06:48:46;;;;;;;2.38;2.17;;;45.50;25.80;;;;;;4958223;28;20442;-68
2023/08/11 06:51:12;;;;;;;2.50;2.30;;;45.80;24.70;;;;;;4957937;28;20493;-68
2023/08/11 06:53:38;;;;;;;2.60;2.40;;;45.60;24.30;;;;;;4958234;28;20032;-68
2023/08/11 06:56:04;;;;;;;2.50;2.30;;;45.70;24.10;;;;;;4958180;28;20035;-68
2023/08/11 06:58:30;;;;;;;2.92;2.20;;;45.70;24.20;;;;;;4957804;28;20480;-68
2023/08/11 07:00:56;;;;;;;2.92;2.22;;;45.90;24.30;;;;;;4957969;29;20098;-68
2023/08/11 07:03:23;;;;;;;4.28;2.25;;;45.50;24.40;;;;;;4957313;28;20024;-68
2023/08/11 07:05:51;;;;;;;3.40;2.50;;;44.30;24.10;;;;;;4972553;28;20068;-68
2023/08/11 07:08:19;;;;;;;3.33;2.13;;;43.40;24.90;;;;;;4957695;29;20103;-68
2023/08/11 07:10:45;;;;;;;2.40;2.00;;;42.60;25.50;;;;;;4957631;28;20031;-68
2023/08/11 07:13:11;;;;;;;2.75;2.03;;;42.30;25.80;;;;;;4957304;28;20062;-67
2023/08/11 07:15:43;;;;;;;2.22;2.03;;;41.80;26.30;;;;;;4958052;29;20078;-68
2023/08/11 07:18:10;;;;;;;3.15;2.20;;;40.70;27.20;;;;;;4957708;29;20074;-68
2023/08/11 07:20:42;;;;;;;2.55;2.15;;;39.40;28.70;;;;;;4957384;28;20035;-69
2023/08/11 07:23:09;;;;;;;3.08;2.17;;;38.20;30.10;;;;;;4958014;28;20019;-67
2023/08/11 07:25:35;;;;;;;3.65;2.22;;;36.70;31.60;;;;;;4957432;28;20426;-71
2023/08/11 07:28:03;;;;;;;3.55;2.30;;;35.70;33.10;;;;;;4957347;29;20315;-68
2023/08/11 07:30:33;;;;;;;2.97;2.30;;;35.10;34.20;;;;;;4957505;28;20074;-68
2023/08/11 07:33:01;;;;;;;15.02;3.30;;;34.30;35.20;;;;;;4957577;28;20442;-68
2023/08/11 07:35:27;;;;;;;12.05;2.80;;;33.60;36.10;;;;;;4957426;28;20035;-68
2023/08/11 07:37:53;;;;;;;14.55;2.83;;;33.00;36.80;;;;;;4957462;28;20070;-68
2023/08/11 07:40:19;;;;;;;2.22;2.00;;;32.80;37.60;;;;;;4957360;28;20033;-68
2023/08/11 07:42:45;;;;;;;3.90;2.00;;;32.40;37.90;;;;;;4957279;28;20027;-68
2023/08/11 07:45:12;;;;;;;4.03;2.15;;;32.10;38.50;;;;;;4957104;29;20035;-68
2023/08/11 07:47:38;;;;;;;3.97;2.30;;;31.90;39.10;;;;;;4957078;28;20030;-68
2023/08/11 07:50:04;;;;;;;3.05;2.30;;;31.80;39.40;;;;;;4956918;29;20037;-68
2023/08/11 07:52:30;;;;;;;3.17;2.30;;;31.80;39.50;;;;;;4956944;28;20358;-68
2023/08/11 07:54:56;;;;;;;3.03;2.30;;;31.90;39.60;;;;;;4957489;28;20035;-68
2023/08/11 07:57:22;;;;;;;2.47;2.08;;;32.00;39.80;;;;;;4956864;29;20323;-68
2023/08/11 07:59:48;;;;;;;2.65;2.30;;;32.00;39.80;;;;;;4956728;29;20031;-68
2023/08/11 08:02:16;;;;;;;2.40;2.17;;;32.20;39.80;;;;;;4956874;28;20019;-68
2023/08/11 08:04:42;;;;;;;2.40;2.20;;;32.10;39.50;;;;;;4956827;28;20031;-68
2023/08/11 08:07:10;;;;;;;2.97;2.35;;;32.10;39.60;;;;;;4957089;28;20023;-68
2023/08/11 08:09:38;;;;;;;3.05;2.50;;;32.10;39.60;;;;;;4956816;29;20035;-68
2023/08/11 08:12:05;;;;;;;3.35;2.10;;;32.00;39.60;;;;;;4956284;28;20494;-67
2023/08/11 08:14:33;;;;;;;2.60;2.10;;;32.00;39.70;;;;;;4971819;28;20035;-68
2023/08/11 08:17:04;;;;;;;3.95;2.47;;;32.10;39.90;;;;;;4961165;28;20490;-68
2023/08/11 08:19:30;;;;;;;6.45;2.95;;;32.10;40.10;;;;;;4960643;28;20126;-67
2023/08/11 08:21:55;;;;;;;3.72;2.53;;;32.00;40.00;;;;;;4960739;28;20027;-68
2023/08/11 08:24:21;;;;;;;3.28;2.25;;;31.70;40.10;;;;;;4960739;28;20027;-68
2023/08/11 08:26:48;;;;;;;2.75;2.30;;;31.60;40.60;;;;;;4961124;28;20027;-68
2023/08/11 08:29:14;;;;;;;3.17;2.60;;;31.60;40.80;;;;;;4960523;28;20034;-68
2023/08/11 08:31:40;;;;;;;3.30;2.05;;;31.60;40.80;;;;;;4960874;28;20086;-68
2023/08/11 08:34:06;;;;;;;4.82;2.55;;;31.50;40.90;;;;;;4961039;28;20035;-68
2023/08/11 08:36:32;;;;;;;3.22;2.40;;;31.30;40.90;;;;;;4960782;28;20027;-70
2023/08/11 08:38:58;;;;;;;3.03;2.50;;;31.20;41.20;;;;;;4960531;28;20035;-68
2023/08/11 08:41:28;;;;;;;3.50;2.42;;;31.20;41.30;;;;;;4960309;29;20485;-68
2023/08/11 08:44:00;;;;;;;4.47;2.58;;;31.20;41.50;;;;;;4959677;29;20034;-68
2023/08/11 08:46:31;;;;;;;4.63;2.60;;;31.30;41.20;;;;;;4960033;29;20058;-68
2023/08/11 08:49:04;;;;;;;4.28;2.88;;;31.30;40.60;;;;;;4961015;28;20027;-68
2023/08/11 08:51:31;;;;;;;3.22;2.40;;;31.20;41.10;;;;;;4961085;28;20027;-68
2023/08/11 08:53:57;;;;;;;3.08;2.70;;;31.00;41.60;;;;;;4960718;28;20426;-68
2023/08/11 08:56:24;;;;;;;2.67;2.20;;;31.00;41.70;;;;;;4960401;28;20149;-68
2023/08/11 08:58:50;;;;;;;4.20;2.80;;;31.10;41.60;;;;;;4959205;28;20038;-67
2023/08/11 09:01:37;;;;;;;3.80;2.63;;;31.20;41.20;;;;;;4960740;28;20390;-67
2023/08/11 09:04:14;;;;;;;2.67;2.40;;;31.10;41.60;;;;;;4960488;28;20028;-68
2023/08/11 09:06:44;;;;;;;3.00;2.13;;;31.20;41.70;;;;;;4960504;28;20020;-68
2023/08/11 09:09:12;;;;;;;4.07;2.70;;;31.30;41.50;;;;;;4960163;28;20446;-68
2023/08/11 09:11:43;;;;;;;3.63;2.17;;;31.40;41.50;;;;;;4959663;29;20031;-68
2023/08/11 09:14:27;;;;;;;3.22;2.40;;;31.50;41.60;;;;;;4958474;28;20086;-68
2023/08/11 09:16:58;;;;;;;3.50;2.50;;;31.60;41.70;;;;;;4960047;28;20097;-68
2023/08/11 09:19:26;;;;;;;3.05;2.28;;;31.80;41.00;;;;;;4960331;28;20031;-68
2023/08/11 09:21:52;;;;;;;4.90;2.53;;;31.70;41.00;;;;;;4959740;28;20023;-67
2023/08/11 09:24:19;;;;;;;3.95;2.47;;;31.60;41.30;;;;;;4975002;28;20031;-68
2023/08/11 09:26:49;;;;;;;4.03;2.60;;;31.50;41.40;;;;;;4959362;28;20026;-68
2023/08/11 09:29:19;;;;;;;5.22;2.53;;;31.50;41.50;;;;;;4958466;28;20106;-68
2023/08/11 09:31:53;;;;;;;3.75;2.60;;;31.50;42.10;;;;;;4959749;28;20027;-68
2023/08/11 09:34:21;;;;;;;4.50;2.50;;;31.50;42.00;;;;;;4960280;28;20062;-68
2023/08/11 09:36:50;;;;;;;3.80;2.38;;;31.50;42.10;;;;;;4960214;28;20038;-68
2023/08/11 09:39:18;;;;;;;3.75;2.60;;;31.60;42.30;;;;;;4959953;28;20442;-68
2023/08/11 09:41:48;;;;;;;4.82;3.00;;;31.70;42.40;;;;;;4960049;28;20043;-68
2023/08/11 09:44:19;;;;;;;2.72;2.40;;;31.70;42.50;;;;;;4959542;28;20030;-68
2023/08/11 09:46:48;;;;;;;3.42;2.53;;;31.80;42.40;;;;;;4960033;28;20038;-69
2023/08/11 09:49:14;;;;;;;3.97;2.40;;;31.80;42.10;;;;;;4959314;28;20035;-69
2023/08/11 09:51:41;;;;;;;3.28;2.38;;;31.70;42.20;;;;;;4959392;29;20023;-68
2023/08/11 09:54:11;;;;;;;5.32;2.75;;;31.80;42.10;;;;;;4959595;28;20031;-68
2023/08/11 09:59:32;;;;;;;3.38;2.90;;;31.50;42.40;;;;;;4959805;29;20125;-68
2023/08/11 10:02:02;;;;;;;2.63;2.35;;;31.40;42.20;;;;;;4959254;28;20071;-69
2023/08/11 10:04:56;;;;;;;3.30;2.70;;;31.40;42.70;;;;;;4959190;28;20027;-68
2023/08/11 10:07:44;;;;;;;2.90;2.40;;;31.40;42.50;;;;;;4959705;28;20020;-69
2023/08/11 10:10:14;;;;;;;4.45;2.72;;;31.40;42.10;;;;;;4959296;28;20038;-69
2023/08/11 10:12:54;;;;;;;4.03;2.70;;;31.40;42.10;;;;;;4958025;28;20047;-69
2023/08/11 10:15:22;;;;;;;2.85;2.22;;;31.40;42.20;;;;;;4959493;28;20060;-68
2023/08/11 10:17:49;;;;;;;4.50;2.33;;;31.40;42.30;;;;;;4957931;29;20082;-69
2023/08/11 10:20:19;;;;;;;2.90;2.60;;;31.40;42.30;;;;;;4958967;28;20027;-69
2023/08/11 10:22:49;;;;;;;3.17;2.80;;;31.40;42.30;;;;;;4958899;28;20082;-68
2023/08/11 10:25:17;;;;;;;4.47;2.78;;;31.30;42.20;;;;;;4959269;28;20038;-68
2023/08/11 10:27:46;;;;;;;5.90;2.90;;;31.20;42.30;;;;;;4958767;28;20464;-68
2023/08/11 10:30:15;;;;;;;3.40;2.70;;;31.10;42.70;;;;;;4958624;28;20042;-69
2023/08/11 10:32:41;;;;;;;4.13;2.75;;;31.00;42.80;;;;;;4958632;28;20045;-68
2023/08/11 10:35:13;;;;;;;4.25;3.05;;;31.00;42.80;;;;;;4959080;28;20054;-69
2023/08/11 10:37:39;;;;;;;5.57;2.93;;;31.00;42.80;;;;;;4958725;28;20046;-69
2023/08/11 10:40:09;;;;;;;5.93;3.22;;;30.90;43.00;;;;;;4958922;28;20319;-68
2023/08/11 10:42:44;;;;;;;3.22;2.90;;;30.90;43.30;;;;;;4957897;29;20106;-68
2023/08/11 10:45:12;;;;;;;3.78;2.92;;;31.00;43.40;;;;;;4958967;28;20020;-68
2023/08/11 10:47:55;;;;;;;4.50;2.60;;;31.00;43.30;;;;;;4958302;28;20454;-69
2023/08/11 10:50:22;;;;;;;5.60;2.90;;;31.00;43.10;;;;;;4957275;29;20461;-68
2023/08/11 10:53:24;;;;;;;5.10;3.30;;;31.10;43.30;;;;;;4958222;28;20517;-69
2023/08/11 10:56:00;;;;;;;4.47;3.03;;;31.10;43.10;;;;;;4958723;28;20346;-68
2023/08/11 11:00:59;;;;;;;2.95;2.65;;;31.10;42.90;;;;;;4958362;29;20031;-68
2023/08/11 11:03:26;;;;;;;4.22;3.17;;;31.00;42.80;;;;;;4958059;28;20117;-69
2023/08/11 11:05:52;;;;;;;3.65;2.65;;;31.00;43.00;;;;;;4957993;28;20039;-68
2023/08/11 11:08:19;;;;;;;3.55;2.63;;;31.00;43.00;;;;;;4973124;28;20023;-68
2023/08/11 11:10:47;;;;;;;3.75;2.78;;;31.00;43.30;;;;;;4957895;28;20023;-69
2023/08/11 11:13:24;;;;;;;6.70;3.30;;;31.10;43.40;;;;;;4957356;28;20055;-69
2023/08/11 11:15:59;;;;;;;5.63;3.25;;;31.00;43.30;;;;;;4958427;28;20078;-67
2023/08/11 11:18:27;;;;;;;6.32;3.33;;;30.90;43.70;;;;;;4957745;28;20438;-68
2023/08/11 11:20:59;;;;;;;5.78;3.42;;;30.90;44.00;;;;;;4957776;28;20074;-68
2023/08/11 11:23:28;;;;;;;4.38;2.70;;;31.00;44.50;;;;;;4957720;28;20035;-68
2023/08/11 11:25:56;;;;;;;3.80;2.85;;;31.00;44.10;;;;;;4958234;28;20034;-67
2023/08/11 11:28:25;;;;;;;5.82;3.10;;;31.10;44.40;;;;;;4957652;29;20031;-68
2023/08/11 11:30:56;;;;;;;4.38;3.00;;;31.20;44.40;;;;;;4957534;28;20023;-68
2023/08/11 11:33:24;;;;;;;3.80;2.90;;;31.30;44.30;;;;;;4957923;28;20033;-69
2023/08/11 11:35:53;;;;;;;4.30;3.20;;;31.40;44.40;;;;;;4957526;28;20070;-68
2023/08/11 11:38:20;;;;;;;4.05;3.15;;;31.50;44.10;;;;;;4957432;28;20468;-68
2023/08/11 11:40:51;;;;;;;3.63;2.90;;;31.50;43.90;;;;;;4956799;28;20095;-68
2023/08/11 11:43:21;;;;;;;4.28;2.92;;;31.50;43.70;;;;;;4957325;28;20038;-68
2023/08/11 11:45:52;;;;;;;7.55;2.83;;;31.40;43.50;;;;;;4957389;28;20023;-68
2023/08/11 11:48:22;;;;;;;3.05;2.70;;;31.50;43.60;;;;;;4957292;28;20035;-69
2023/08/11 11:50:51;;;;;;;4.30;2.90;;;31.50;43.30;;;;;;4955955;28;20062;-69
2023/08/11 11:53:20;;;;;;;3.65;2.85;;;31.50;43.30;;;;;;4957595;28;20038;-68
2023/08/11 11:55:47;;;;;;;4.90;2.90;;;31.50;43.50;;;;;;4957174;28;20019;-68
2023/08/11 11:58:17;;;;;;;5.38;2.92;;;31.60;43.30;;;;;;4957035;28;20038;-69
2023/08/11 12:00:46;;;;;;;3.58;2.83;;;31.50;43.10;;;;;;4957071;28;20019;-68
2023/08/11 12:03:20;;;;;;;4.50;2.90;;;31.60;43.30;;;;;;4957719;28;20030;-68
2023/08/11 12:05:47;;;;;;;4.85;3.00;;;31.70;43.20;;;;;;4957106;28;20176;-68
2023/08/11 12:08:25;;;;;;;5.03;2.90;;;31.60;43.20;;;;;;4957055;28;20027;-69
2023/08/11 12:10:52;;;;;;;5.43;3.10;;;31.60;42.80;;;;;;4957589;28;20393;-68
2023/08/11 12:13:18;;;;;;;4.32;3.17;;;31.60;42.80;;;;;;4956829;28;20094;-68
2023/08/11 12:15:48;;;;;;;3.88;3.10;;;31.50;42.80;;;;;;4957025;28;20051;-69
2023/08/11 12:18:20;;;;;;;5.60;3.20;;;31.50;42.70;;;;;;4956953;28;20027;-68
2023/08/11 12:20:46;;;;;;;3.58;2.92;;;31.40;42.80;;;;;;4957093;28;20023;-68
2023/08/11 12:23:14;;;;;;;3.95;3.10;;;31.40;42.90;;;;;;4957218;28;20039;-68
2023/08/11 12:25:48;;;;;;;5.60;3.05;;;31.40;43.20;;;;;;4956932;29;20031;-68
2023/08/11 12:28:15;;;;;;;4.43;2.80;;;31.40;43.80;;;;;;4957505;28;20046;-69
2023/08/11 12:30:41;;;;;;;3.78;3.00;;;31.50;43.70;;;;;;4957175;28;20051;-69
2023/08/11 12:33:07;;;;;;;4.05;3.30;;;31.60;43.50;;;;;;4956957;28;20466;-69
2023/08/11 12:35:34;;;;;;;3.65;3.00;;;31.70;43.20;;;;;;4957400;29;20038;-68
2023/08/11 12:38:09;;;;;;;3.58;3.13;;;31.60;43.10;;;;;;4956816;28;20023;-68
2023/08/11 12:40:47;;;;;;;5.28;3.05;;;31.60;42.20;;;;;;4956822;28;20064;-67
2023/08/11 12:43:14;;;;;;;3.50;3.20;;;31.50;42.70;;;;;;4956800;28;20034;-69
2023/08/11 12:45:50;;;;;;;4.47;3.25;;;31.40;42.90;;;;;;4957034;28;20124;-68
2023/08/11 12:48:23;;;;;;;3.42;2.95;;;31.40;42.80;;;;;;4957031;28;20031;-69
2023/08/11 12:50:49;;;;;;;4.82;3.13;;;31.30;42.80;;;;;;4956690;28;20090;-68
2023/08/11 12:55:51;;;;;;;3.38;3.08;;;31.30;43.00;;;;;;4957328;29;20154;-68
2023/08/11 12:58:20;;;;;;;5.22;3.25;;;31.30;43.00;;;;;;4956919;28;20027;-69
2023/08/11 13:00:51;;;;;;;4.28;3.10;;;31.30;42.90;;;;;;4956761;28;20045;-68